Time;durP1;ratioP1;P1;durP2;ratioP2;P2;SDS_P1;SDS_P2;PMS_P1;PMS_P2;Temp;Humidity;BMP_temperature;BMP_pressure;BME280_temperature;BME280_humidity;BME280_pressure;Samples;Min_cycle;Max_cycle;Signal;HPM_P1;HPM_P2
2022/05/26 00:02:13;;;;;;;;;2.00;1.25;;;;;;;;5022761;28;45483;-64
2022/05/26 00:04:38;;;;;;;;;2.75;1.00;;;;;;;;5031609;28;45866;-66
2022/05/26 00:07:03;;;;;;;;;0.50;0.50;;;;;;;;5033014;28;45688;-65
2022/05/26 00:09:28;;;;;;;;;2.00;1.00;;;;;;;;5033042;28;46168;-66
2022/05/26 00:11:54;;;;;;;;;1.75;1.75;;;;;;;;5030954;28;45671;-66
2022/05/26 00:14:19;;;;;;;;;0.25;0.25;;;;;;;;5031379;28;46828;-65
2022/05/26 00:16:45;;;;;;;;;0.75;0.50;;;;;;;;5031499;28;45485;-65
2022/05/26 00:19:12;;;;;;;;;0.75;0.75;;;;;;;;5031961;28;45713;-66
2022/05/26 00:21:37;;;;;;;;;1.00;1.00;;;;;;;;5032402;28;45548;-65
2022/05/26 00:24:03;;;;;;;;;0.50;0.50;;;;;;;;5031413;28;46376;-65
2022/05/26 00:26:28;;;;;;;;;1.00;1.00;;;;;;;;5031370;28;45613;-65
2022/05/26 00:28:53;;;;;;;;;0.75;0.75;;;;;;;;5031406;28;45536;-65
2022/05/26 00:31:19;;;;;;;;;0.00;0.00;;;;;;;;5031419;28;45428;-65
2022/05/26 00:33:44;;;;;;;;;0.00;0.00;;;;;;;;5031650;28;48072;-65
2022/05/26 00:36:12;;;;;;;;;1.25;1.25;;;;;;;;5029926;28;45331;-64
2022/05/26 00:38:38;;;;;;;;;1.25;1.00;;;;;;;;5030043;28;45385;-65
2022/05/26 00:41:09;;;;;;;;;1.25;1.00;;;;;;;;5031469;28;45496;-65
2022/05/26 00:43:34;;;;;;;;;0.00;0.00;;;;;;;;5030196;28;45671;-66
2022/05/26 00:46:07;;;;;;;;;0.50;0.00;;;;;;;;5028685;28;45657;-65
2022/05/26 00:48:52;;;;;;;;;1.00;0.00;;;;;;;;5045055;28;46006;-66
2022/05/26 00:51:20;;;;;;;;;0.50;0.50;;;;;;;;5028606;28;45434;-65
2022/05/26 00:53:47;;;;;;;;;1.50;1.00;;;;;;;;5029589;28;45599;-65
2022/05/26 00:56:12;;;;;;;;;0.50;0.50;;;;;;;;5030941;28;45887;-65
2022/05/26 00:58:40;;;;;;;;;0.25;0.00;;;;;;;;5030921;28;45711;-66
2022/05/26 01:01:05;;;;;;;;;2.50;1.25;;;;;;;;5031963;28;45432;-66
2022/05/26 01:03:38;;;;;;;;;1.00;1.00;;;;;;;;5030691;28;46816;-64
2022/05/26 01:06:09;;;;;;;;;0.00;0.00;;;;;;;;5031310;28;45516;-64
2022/05/26 01:08:55;;;;;;;;;3.25;0.00;;;;;;;;5031208;28;45673;-66
2022/05/26 01:11:20;;;;;;;;;0.25;0.25;;;;;;;;5023469;28;45560;-65
2022/05/26 01:13:48;;;;;;;;;0.25;0.25;;;;;;;;5027207;28;45515;-64
2022/05/26 01:16:27;;;;;;;;;0.00;0.00;;;;;;;;5020380;28;45477;-66
2022/05/26 01:18:52;;;;;;;;;1.25;1.25;;;;;;;;5028966;28;45371;-65
2022/05/26 01:21:33;;;;;;;;;0.25;0.00;;;;;;;;5025923;28;45525;-65
2022/05/26 01:24:08;;;;;;;;;0.00;0.00;;;;;;;;5028132;28;45627;-65
2022/05/26 01:26:39;;;;;;;;;2.50;0.00;;;;;;;;5020430;28;45496;-64
2022/05/26 01:29:23;;;;;;;;;2.00;1.00;;;;;;;;5021392;28;45621;-64
2022/05/26 01:31:54;;;;;;;;;1.75;1.75;;;;;;;;5029242;28;45490;-66
2022/05/26 01:34:19;;;;;;;;;0.50;0.50;;;;;;;;5014373;28;45982;-66
2022/05/26 01:37:06;;;;;;;;;0.00;0.00;;;;;;;;5017132;28;45791;-64
2022/05/26 01:39:43;;;;;;;;;1.50;1.00;;;;;;;;5028757;28;45413;-63
2022/05/26 01:42:20;;;;;;;;;0.00;0.00;;;;;;;;5020113;28;45440;-64
2022/05/26 01:44:54;;;;;;;;;2.00;0.50;;;;;;;;5015762;28;45405;-64
2022/05/26 01:47:28;;;;;;;;;1.00;1.00;;;;;;;;5033704;28;46228;-65
2022/05/26 01:49:56;;;;;;;;;2.00;2.00;;;;;;;;5031303;28;46042;-64
2022/05/26 01:52:32;;;;;;;;;0.25;0.25;;;;;;;;5031351;28;45627;-65
2022/05/26 01:55:06;;;;;;;;;0.25;0.25;;;;;;;;5045197;28;46496;-65
2022/05/26 01:57:37;;;;;;;;;1.00;1.00;;;;;;;;5016437;28;45389;-64
2022/05/26 02:00:14;;;;;;;;;1.00;0.00;;;;;;;;5024509;28;45485;-65
2022/05/26 02:02:41;;;;;;;;;1.50;1.50;;;;;;;;5026952;28;45602;-64
2022/05/26 02:05:12;;;;;;;;;1.00;1.00;;;;;;;;5035504;28;45601;-64
2022/05/26 02:07:40;;;;;;;;;1.00;1.00;;;;;;;;5031159;28;45409;-63
2022/05/26 02:10:13;;;;;;;;;0.25;0.25;;;;;;;;5030634;28;46151;-65
2022/05/26 02:12:44;;;;;;;;;0.50;0.50;;;;;;;;5031272;28;45343;-64
2022/05/26 02:15:15;;;;;;;;;2.00;0.00;;;;;;;;5030564;28;46768;-65
2022/05/26 02:17:44;;;;;;;;;1.25;0.00;;;;;;;;5030706;28;46017;-65
2022/05/26 02:20:13;;;;;;;;;0.00;0.00;;;;;;;;5029679;28;45409;-65
2022/05/26 02:22:49;;;;;;;;;4.00;1.00;;;;;;;;5027393;28;45623;-65
2022/05/26 02:25:25;;;;;;;;;0.75;0.75;;;;;;;;5028868;28;47890;-64
2022/05/26 02:27:52;;;;;;;;;1.25;1.25;;;;;;;;5043690;28;45827;-65
2022/05/26 02:30:18;;;;;;;;;0.00;0.00;;;;;;;;5026143;28;45432;-65
2022/05/26 02:32:52;;;;;;;;;0.25;0.25;;;;;;;;5037371;28;45645;-64
2022/05/26 02:35:17;;;;;;;;;1.50;1.00;;;;;;;;5021816;28;45925;-63
2022/05/26 02:37:45;;;;;;;;;0.00;0.00;;;;;;;;5028690;28;45465;-63
2022/05/26 02:40:10;;;;;;;;;0.00;0.00;;;;;;;;5029780;28;45519;-64
2022/05/26 02:42:39;;;;;;;;;0.00;0.00;;;;;;;;5030730;28;45521;-64
2022/05/26 02:45:04;;;;;;;;;0.00;0.00;;;;;;;;5030239;28;45654;-65
2022/05/26 02:47:42;;;;;;;;;0.00;0.00;;;;;;;;5031677;28;45564;-64
2022/05/26 02:50:22;;;;;;;;;0.25;0.25;;;;;;;;5029007;28;45924;-63
2022/05/26 02:52:57;;;;;;;;;0.25;0.25;;;;;;;;5030426;28;45374;-65
2022/05/26 02:55:31;;;;;;;;;0.00;0.00;;;;;;;;5028660;28;47823;-65
2022/05/26 02:58:00;;;;;;;;;0.00;0.00;;;;;;;;5032024;28;45487;-65
2022/05/26 03:00:30;;;;;;;;;1.00;1.00;;;;;;;;5030103;28;45522;-65
2022/05/26 03:03:14;;;;;;;;;2.75;1.00;;;;;;;;5030353;28;45587;-65
2022/05/26 03:05:53;;;;;;;;;1.00;0.00;;;;;;;;5025734;28;47868;-65
2022/05/26 03:08:21;;;;;;;;;1.00;1.00;;;;;;;;5023249;28;45460;-64
2022/05/26 03:10:48;;;;;;;;;0.00;0.00;;;;;;;;5033887;28;45456;-65
2022/05/26 03:13:14;;;;;;;;;0.75;0.25;;;;;;;;5033355;28;45456;-65
2022/05/26 03:15:40;;;;;;;;;0.00;0.00;;;;;;;;5034218;28;46364;-65
2022/05/26 03:18:05;;;;;;;;;0.00;0.00;;;;;;;;5045750;28;45458;-65
2022/05/26 03:20:31;;;;;;;;;0.00;0.00;;;;;;;;5025470;28;45638;-64
2022/05/26 03:22:56;;;;;;;;;0.00;0.00;;;;;;;;5033741;28;45367;-65
2022/05/26 03:25:21;;;;;;;;;0.00;0.00;;;;;;;;5031628;28;47573;-65
2022/05/26 03:27:46;;;;;;;;;1.00;1.00;;;;;;;;5035517;28;45361;-66
2022/05/26 03:30:12;;;;;;;;;0.00;0.00;;;;;;;;5027655;28;45405;-65
2022/05/26 03:32:37;;;;;;;;;0.00;0.00;;;;;;;;5039763;28;45511;-64
2022/05/26 03:40:46;;;;;;;;;0.25;0.00;;;;;;;;5017076;28;45568;-65
2022/05/26 03:43:12;;;;;;;;;0.00;0.00;;;;;;;;5032381;28;45619;-65
2022/05/26 03:45:37;;;;;;;;;0.00;0.00;;;;;;;;5028907;28;46824;-65
2022/05/26 03:48:04;;;;;;;;;0.75;0.00;;;;;;;;5029327;28;45413;-65
2022/05/26 03:50:29;;;;;;;;;0.00;0.00;;;;;;;;5033209;28;45456;-64
2022/05/26 03:52:54;;;;;;;;;1.00;1.00;;;;;;;;5033286;28;49817;-64
2022/05/26 03:55:20;;;;;;;;;0.75;0.75;;;;;;;;5048611;28;47498;-64
2022/05/26 03:57:45;;;;;;;;;2.00;2.00;;;;;;;;5035221;28;45489;-65
2022/05/26 04:00:12;;;;;;;;;0.50;0.50;;;;;;;;5032773;28;45434;-65
2022/05/26 04:02:37;;;;;;;;;0.50;0.50;;;;;;;;5031517;28;45624;-65
2022/05/26 04:05:03;;;;;;;;;0.50;0.50;;;;;;;;5032103;28;45737;-65
2022/05/26 04:07:28;;;;;;;;;1.00;1.00;;;;;;;;5032888;28;45566;-64
2022/05/26 04:09:53;;;;;;;;;0.25;0.25;;;;;;;;5035094;28;45437;-66
2022/05/26 04:12:18;;;;;;;;;2.50;1.00;;;;;;;;5032784;28;46069;-65
2022/05/26 04:14:43;;;;;;;;;1.00;1.00;;;;;;;;5032310;28;47055;-63
2022/05/26 04:17:09;;;;;;;;;2.00;2.00;;;;;;;;5032492;28;45461;-64
2022/05/26 04:19:35;;;;;;;;;3.00;1.50;;;;;;;;5032977;28;45514;-64
2022/05/26 04:22:15;;;;;;;;;4.00;2.00;;;;;;;;5034057;28;45521;-64
2022/05/26 04:24:41;;;;;;;;;1.00;1.00;;;;;;;;5033020;28;47007;-64
2022/05/26 04:27:07;;;;;;;;;1.00;1.00;;;;;;;;5030716;28;45557;-65
2022/05/26 04:29:33;;;;;;;;;1.00;1.00;;;;;;;;5032529;28;45426;-64
2022/05/26 04:31:59;;;;;;;;;2.75;1.75;;;;;;;;5031168;28;45597;-66
2022/05/26 04:34:24;;;;;;;;;2.00;1.00;;;;;;;;5032209;28;45661;-64
2022/05/26 04:36:50;;;;;;;;;1.00;1.00;;;;;;;;5034318;28;45440;-65
2022/05/26 04:39:16;;;;;;;;;2.50;1.00;;;;;;;;5032511;28;45803;-64
2022/05/26 04:41:42;;;;;;;;;2.00;1.75;;;;;;;;5032362;28;46077;-65
2022/05/26 04:44:07;;;;;;;;;1.00;1.00;;;;;;;;5032083;28;46617;-65
2022/05/26 04:46:33;;;;;;;;;0.00;0.00;;;;;;;;5031023;28;45504;-67
2022/05/26 04:48:58;;;;;;;;;2.00;1.00;;;;;;;;5032106;28;45360;-64
2022/05/26 04:51:23;;;;;;;;;2.00;2.00;;;;;;;;5031366;28;45616;-65
2022/05/26 04:53:48;;;;;;;;;1.00;0.50;;;;;;;;5031938;28;46187;-64
2022/05/26 04:56:14;;;;;;;;;1.25;1.25;;;;;;;;5032300;28;45466;-65
2022/05/26 04:58:39;;;;;;;;;1.50;1.00;;;;;;;;5030751;28;45910;-65
2022/05/26 05:01:13;;;;;;;;;1.00;1.00;;;;;;;;5033314;28;45563;-65
2022/05/26 05:03:39;;;;;;;;;1.00;1.00;;;;;;;;5029396;28;47710;-67
2022/05/26 05:06:04;;;;;;;;;1.25;1.25;;;;;;;;5029759;28;45511;-67
2022/05/26 05:08:29;;;;;;;;;1.00;1.00;;;;;;;;5031539;28;45461;-67
2022/05/26 05:10:54;;;;;;;;;2.00;2.00;;;;;;;;5031968;28;45589;-67
2022/05/26 05:13:19;;;;;;;;;2.00;2.00;;;;;;;;5031760;28;45879;-66
2022/05/26 05:15:50;;;;;;;;;1.00;1.00;;;;;;;;5032704;28;45750;-66
2022/05/26 05:18:15;;;;;;;;;1.50;1.50;;;;;;;;5030077;28;45569;-65
2022/05/26 05:20:41;;;;;;;;;2.50;1.25;;;;;;;;5031468;28;45476;-67
2022/05/26 05:23:08;;;;;;;;;1.00;1.00;;;;;;;;5031539;28;45638;-67
2022/05/26 05:25:38;;;;;;;;;1.75;1.75;;;;;;;;5030301;28;45636;-67
2022/05/26 05:28:03;;;;;;;;;1.00;1.00;;;;;;;;5032622;28;45535;-67
2022/05/26 05:30:33;;;;;;;;;2.00;2.00;;;;;;;;5032048;28;45378;-67
2022/05/26 05:32:58;;;;;;;;;1.50;1.00;;;;;;;;5030066;28;47680;-67
2022/05/26 05:35:26;;;;;;;;;0.75;0.75;;;;;;;;5029859;28;45540;-67
2022/05/26 05:37:52;;;;;;;;;2.00;2.00;;;;;;;;5031953;28;46190;-67
2022/05/26 05:40:17;;;;;;;;;1.00;1.00;;;;;;;;5033413;28;45377;-66
2022/05/26 05:42:42;;;;;;;;;2.00;0.00;;;;;;;;5032229;28;48382;-66
2022/05/26 05:45:08;;;;;;;;;2.00;1.00;;;;;;;;5043658;28;46032;-66
2022/05/26 05:47:33;;;;;;;;;1.00;1.00;;;;;;;;5023806;28;45441;-67
2022/05/26 05:49:59;;;;;;;;;0.50;0.50;;;;;;;;5030312;28;45496;-66
2022/05/26 05:52:24;;;;;;;;;1.50;1.00;;;;;;;;5029255;28;47473;-66
2022/05/26 05:54:50;;;;;;;;;1.00;1.00;;;;;;;;5033336;28;45388;-67
2022/05/26 05:57:15;;;;;;;;;1.00;1.00;;;;;;;;5030047;28;45614;-66
2022/05/26 05:59:40;;;;;;;;;2.75;0.75;;;;;;;;5029896;28;46069;-66
2022/05/26 06:02:06;;;;;;;;;4.75;0.00;;;;;;;;5046786;28;47777;-68
2022/05/26 06:04:31;;;;;;;;;1.75;0.50;;;;;;;;5028448;28;45456;-67
2022/05/26 06:06:58;;;;;;;;;1.50;1.50;;;;;;;;5033148;28;45548;-65
2022/05/26 06:09:23;;;;;;;;;0.25;0.25;;;;;;;;5030646;28;45535;-66
2022/05/26 06:11:49;;;;;;;;;0.00;0.00;;;;;;;;5028076;28;45609;-65
2022/05/26 06:14:14;;;;;;;;;3.00;1.00;;;;;;;;5020592;28;45386;-66
2022/05/26 06:16:40;;;;;;;;;0.25;0.00;;;;;;;;5031383;28;45372;-67
2022/05/26 06:19:05;;;;;;;;;0.00;0.00;;;;;;;;5032283;28;45510;-66
2022/05/26 06:21:32;;;;;;;;;0.50;0.50;;;;;;;;5027549;28;47797;-67
2022/05/26 06:23:57;;;;;;;;;0.00;0.00;;;;;;;;5028144;28;45552;-67
2022/05/26 06:26:23;;;;;;;;;0.00;0.00;;;;;;;;5031165;28;45480;-67
2022/05/26 06:29:49;;;;;;;;;0.75;0.50;;;;;;;;5046616;28;45503;-67
2022/05/26 06:37:13;;;;;;;;;1.00;1.00;;;;;;;;5016793;28;45412;-67
2022/05/26 06:37:15;;;;;;;;;1.75;0.75;;;;;;;;5031116;28;45480;-67
2022/05/26 06:39:40;;;;;;;;;0.00;0.00;;;;;;;;5031717;28;45441;-67
2022/05/26 06:42:06;;;;;;;;;1.25;0.25;;;;;;;;5030417;28;45433;-66
2022/05/26 06:44:40;;;;;;;;;0.75;0.75;;;;;;;;5031581;28;45520;-68
2022/05/26 06:47:07;;;;;;;;;0.00;0.00;;;;;;;;5033476;28;45553;-68
2022/05/26 06:49:33;;;;;;;;;1.00;1.00;;;;;;;;5033121;28;45382;-67
2022/05/26 06:51:58;;;;;;;;;3.00;1.75;;;;;;;;5035508;28;45431;-67
2022/05/26 06:54:23;;;;;;;;;0.00;0.00;;;;;;;;5034220;28;45427;-68
2022/05/26 06:56:48;;;;;;;;;0.00;0.00;;;;;;;;5034135;28;45455;-67
2022/05/26 06:59:14;;;;;;;;;0.00;0.00;;;;;;;;5034470;28;45448;-67
2022/05/26 07:01:39;;;;;;;;;0.00;0.00;;;;;;;;5032995;28;47826;-67
2022/05/26 07:04:04;;;;;;;;;0.25;0.25;;;;;;;;5035117;28;45374;-66
2022/05/26 07:06:29;;;;;;;;;0.00;0.00;;;;;;;;5030877;28;45615;-66
2022/05/26 07:08:55;;;;;;;;;0.00;0.00;;;;;;;;5024642;28;45558;-67
2022/05/26 07:11:20;;;;;;;;;1.25;0.00;;;;;;;;5023949;28;46032;-66
2022/05/26 07:13:45;;;;;;;;;0.00;0.00;;;;;;;;5033583;28;49681;-68
2022/05/26 07:16:11;;;;;;;;;0.00;0.00;;;;;;;;5033837;28;45807;-68
2022/05/26 07:18:37;;;;;;;;;0.00;0.00;;;;;;;;5034085;28;45520;-68
2022/05/26 07:21:03;;;;;;;;;0.75;0.75;;;;;;;;5031820;28;46191;-67
2022/05/26 07:23:29;;;;;;;;;0.00;0.00;;;;;;;;5032853;28;45884;-68
2022/05/26 07:25:55;;;;;;;;;0.75;0.75;;;;;;;;5032498;28;45491;-67
2022/05/26 07:28:23;;;;;;;;;0.00;0.00;;;;;;;;5033863;28;45574;-67
2022/05/26 07:30:48;;;;;;;;;0.50;0.00;;;;;;;;5035460;28;46228;-68
2022/05/26 07:33:13;;;;;;;;;0.00;0.00;;;;;;;;5032984;28;45509;-66
2022/05/26 07:35:38;;;;;;;;;0.00;0.00;;;;;;;;5032226;28;45366;-68
2022/05/26 07:43:34;;;;;;;;;3.50;3.00;;;;;;;;5019069;28;45953;-67
2022/05/26 07:45:59;;;;;;;;;2.75;2.75;;;;;;;;5016870;28;45349;-67
2022/05/26 07:48:25;;;;;;;;;5.00;3.25;;;;;;;;5033984;28;45565;-67
2022/05/26 07:50:50;;;;;;;;;4.75;4.75;;;;;;;;5030681;28;46624;-67
2022/05/26 07:53:15;;;;;;;;;4.75;3.50;;;;;;;;5032839;28;45440;-67
2022/05/26 07:55:42;;;;;;;;;4.75;3.75;;;;;;;;5030724;28;47110;-67
2022/05/26 07:58:11;;;;;;;;;2.75;2.75;;;;;;;;5032519;28;45394;-67
2022/05/26 08:00:37;;;;;;;;;3.00;3.00;;;;;;;;5032833;28;46045;-66
2022/05/26 08:03:03;;;;;;;;;36.00;23.50;;;;;;;;5044593;28;45930;-66
2022/05/26 08:05:28;;;;;;;;;3.25;2.75;;;;;;;;5026594;28;45566;-66
2022/05/26 08:07:53;;;;;;;;;3.00;3.00;;;;;;;;5032578;28;45911;-67
2022/05/26 08:10:20;;;;;;;;;4.50;4.25;;;;;;;;5033902;28;45792;-67
2022/05/26 08:12:45;;;;;;;;;2.00;2.00;;;;;;;;5033282;28;45783;-67
2022/05/26 08:15:10;;;;;;;;;3.75;3.50;;;;;;;;5028874;28;45430;-67
2022/05/26 08:17:36;;;;;;;;;5.25;3.75;;;;;;;;5025444;28;45524;-67
2022/05/26 08:20:01;;;;;;;;;2.75;2.75;;;;;;;;5046218;28;47387;-66
2022/05/26 08:22:27;;;;;;;;;4.00;3.75;;;;;;;;5033069;28;45342;-68
2022/05/26 08:24:53;;;;;;;;;4.00;4.00;;;;;;;;5035052;28;45453;-68
2022/05/26 08:27:19;;;;;;;;;3.50;3.50;;;;;;;;5030406;28;45580;-67
2022/05/26 08:29:44;;;;;;;;;4.75;4.75;;;;;;;;5033180;28;46436;-66
2022/05/26 08:32:09;;;;;;;;;3.00;3.00;;;;;;;;5048124;28;46223;-67
2022/05/26 08:34:34;;;;;;;;;4.25;4.25;;;;;;;;5032203;28;45721;-67
2022/05/26 08:37:00;;;;;;;;;3.00;3.00;;;;;;;;5029698;28;45953;-67
2022/05/26 08:39:25;;;;;;;;;3.00;3.00;;;;;;;;5032855;28;45647;-67
2022/05/26 08:41:52;;;;;;;;;3.75;3.75;;;;;;;;5031100;28;45520;-68
2022/05/26 08:44:32;;;;;;;;;4.75;4.75;;;;;;;;5033845;28;45672;-67
2022/05/26 08:47:02;;;;;;;;;3.00;3.00;;;;;;;;5030835;28;45495;-66
2022/05/26 08:49:34;;;;;;;;;3.50;3.50;;;;;;;;5030687;28;45834;-67
2022/05/26 08:52:05;;;;;;;;;2.50;2.50;;;;;;;;5033572;28;45780;-67
2022/05/26 08:54:47;;;;;;;;;2.75;1.50;;;;;;;;5028537;28;45556;-67
2022/05/26 08:57:14;;;;;;;;;3.00;3.00;;;;;;;;5029497;28;45635;-66
2022/05/26 08:59:41;;;;;;;;;2.00;2.00;;;;;;;;5030363;28;48908;-67
2022/05/26 09:02:18;;;;;;;;;2.00;2.00;;;;;;;;5030164;28;45397;-65
2022/05/26 09:04:44;;;;;;;;;2.50;2.00;;;;;;;;5030912;28;45489;-66
2022/05/26 09:12:57;;;;;;;;;4.25;3.25;;;;;;;;5033586;28;45392;-67
2022/05/26 09:15:26;;;;;;;;;3.00;3.00;;;;;;;;5047141;28;45590;-68
2022/05/26 09:17:51;;;;;;;;;2.25;2.25;;;;;;;;5027967;28;45458;-67
2022/05/26 09:20:38;;;;;;;;;1.50;1.50;;;;;;;;5027746;28;46365;-67
2022/05/26 09:23:09;;;;;;;;;3.75;3.00;;;;;;;;5024622;28;45519;-66
2022/05/26 09:25:36;;;;;;;;;2.25;2.25;;;;;;;;5022824;28;45843;-66
2022/05/26 09:28:01;;;;;;;;;1.50;1.50;;;;;;;;5027583;28;45830;-66
2022/05/26 09:30:28;;;;;;;;;3.00;3.00;;;;;;;;5026007;28;47254;-66
2022/05/26 09:32:55;;;;;;;;;3.25;3.25;;;;;;;;5027313;28;45633;-66
2022/05/26 09:35:20;;;;;;;;;7.50;4.00;;;;;;;;5017310;28;45436;-66
2022/05/26 09:37:51;;;;;;;;;3.00;3.00;;;;;;;;5039838;28;46034;-66
2022/05/26 09:40:17;;;;;;;;;3.00;3.00;;;;;;;;5016302;28;48386;-67
2022/05/26 09:42:43;;;;;;;;;3.25;3.25;;;;;;;;5015619;28;45558;-65
2022/05/26 09:45:13;;;;;;;;;3.00;2.00;;;;;;;;5032002;28;45636;-66
2022/05/26 09:47:44;;;;;;;;;2.50;2.50;;;;;;;;5029127;28;45636;-67
2022/05/26 09:50:16;;;;;;;;;2.75;2.50;;;;;;;;5058766;27;49049;-67
2022/05/26 09:52:42;;;;;;;;;2.00;2.00;;;;;;;;5029561;28;46345;-67
2022/05/26 09:55:19;;;;;;;;;1.50;1.50;;;;;;;;5023601;28;45993;-66
2022/05/26 09:57:44;;;;;;;;;3.75;3.75;;;;;;;;5033004;28;45447;-67
2022/05/26 10:00:14;;;;;;;;;2.00;2.00;;;;;;;;5041431;28;47398;-66
2022/05/26 10:02:40;;;;;;;;;2.00;2.00;;;;;;;;5012275;28;45501;-65
2022/05/26 10:05:09;;;;;;;;;3.50;2.00;;;;;;;;5029848;28;45871;-66
2022/05/26 10:07:37;;;;;;;;;2.00;2.00;;;;;;;;5042060;28;45508;-66
2022/05/26 10:10:17;;;;;;;;;2.75;2.00;;;;;;;;5041326;28;48084;-67
2022/05/26 10:13:01;;;;;;;;;1.00;1.00;;;;;;;;5016729;28;45434;-67
2022/05/26 10:15:35;;;;;;;;;2.00;2.00;;;;;;;;5024755;28;45511;-66
2022/05/26 10:18:17;;;;;;;;;1.75;1.00;;;;;;;;5028457;28;45592;-68
2022/05/26 10:20:49;;;;;;;;;1.00;1.00;;;;;;;;5028539;28;45731;-67
2022/05/26 10:23:27;;;;;;;;;2.00;2.00;;;;;;;;5029285;28;45562;-67
2022/05/26 10:26:11;;;;;;;;;1.00;1.00;;;;;;;;5032845;28;45434;-67
2022/05/26 10:28:53;;;;;;;;;1.00;1.00;;;;;;;;5016067;28;45419;-66
2022/05/26 10:31:27;;;;;;;;;2.00;1.75;;;;;;;;5014359;28;48549;-67
2022/05/26 10:34:11;;;;;;;;;1.00;1.00;;;;;;;;5016267;28;45787;-67
2022/05/26 10:36:49;;;;;;;;;2.50;0.75;;;;;;;;5031223;28;45443;-67
2022/05/26 10:39:29;;;;;;;;;2.00;1.00;;;;;;;;5014586;28;45602;-68
2022/05/26 10:42:01;;;;;;;;;0.00;0.00;;;;;;;;5013769;28;47223;-68
2022/05/26 10:44:35;;;;;;;;;1.00;1.00;;;;;;;;5060875;28;45936;-68
2022/05/26 10:47:22;;;;;;;;;0.50;0.50;;;;;;;;5023600;28;45391;-67
2022/05/26 10:49:54;;;;;;;;;0.33;0.33;;;;;;;;5018278;28;45514;-66
2022/05/26 10:52:35;;;;;;;;;0.75;0.75;;;;;;;;5030360;28;47802;-66
2022/05/26 10:55:05;;;;;;;;;0.67;0.67;;;;;;;;5017455;28;45615;-67
2022/05/26 10:57:30;;;;;;;;;1.00;1.00;;;;;;;;5013930;28;45525;-66
2022/05/26 11:00:04;;;;;;;;;1.00;1.00;;;;;;;;5028684;28;45486;-66
2022/05/26 11:02:39;;;;;;;;;1.00;1.00;;;;;;;;5027811;28;48137;-66
2022/05/26 11:05:04;;;;;;;;;1.00;1.00;;;;;;;;5017771;28;46564;-66
2022/05/26 11:07:30;;;;;;;;;2.00;1.00;;;;;;;;5021149;28;45599;-67
2022/05/26 11:09:57;;;;;;;;;1.00;1.00;;;;;;;;5024401;28;45370;-66
2022/05/26 11:12:33;;;;;;;;;3.00;1.00;;;;;;;;5030134;28;48500;-67
2022/05/26 11:17:59;;;;;;;;;4.00;3.00;;;;;;;;5028683;28;45479;-66
2022/05/26 11:20:29;;;;;;;;;0.25;0.25;;;;;;;;5028299;28;45436;-66
2022/05/26 11:22:57;;;;;;;;;0.25;0.25;;;;;;;;5026210;28;46443;-67
2022/05/26 11:25:28;;;;;;;;;0.00;0.00;;;;;;;;5024164;28;45523;-67
2022/05/26 11:27:57;;;;;;;;;1.75;0.75;;;;;;;;5024813;28;45892;-66
2022/05/26 11:36:11;;;;;;;;;0.00;0.00;;;;;;;;5017849;28;45633;-68
2022/05/26 11:38:47;;;;;;;;;0.00;0.00;;;;;;;;5030392;28;45421;-66
2022/05/26 11:41:14;;;;;;;;;0.50;0.50;;;;;;;;5039412;28;45599;-68
2022/05/26 11:43:39;;;;;;;;;0.00;0.00;;;;;;;;5022228;28;48555;-66
2022/05/26 11:46:07;;;;;;;;;0.00;0.00;;;;;;;;5025015;28;45603;-67
2022/05/26 11:48:32;;;;;;;;;0.00;0.00;;;;;;;;5029196;28;45491;-66
2022/05/26 11:51:16;;;;;;;;;0.00;0.00;;;;;;;;5030917;28;45885;-68
2022/05/26 11:53:45;;;;;;;;;0.00;0.00;;;;;;;;5016174;28;45796;-68
2022/05/26 11:59:12;;;;;;;;;0.00;0.00;;;;;;;;5027131;28;45453;-68
2022/05/26 12:01:38;;;;;;;;;0.25;0.25;;;;;;;;5025313;28;45488;-68
2022/05/26 12:04:06;;;;;;;;;0.00;0.00;;;;;;;;5030103;28;46698;-67
2022/05/26 12:06:33;;;;;;;;;0.00;0.00;;;;;;;;5029104;28;46256;-67
2022/05/26 12:09:07;;;;;;;;;0.00;0.00;;;;;;;;5028796;28;45894;-67
2022/05/26 12:11:51;;;;;;;;;0.00;0.00;;;;;;;;5030737;28;45580;-68
2022/05/26 12:14:27;;;;;;;;;0.00;0.00;;;;;;;;5033629;28;46036;-68
2022/05/26 12:17:12;;;;;;;;;0.75;0.75;;;;;;;;5026285;28;45578;-67
2022/05/26 12:19:40;;;;;;;;;0.00;0.00;;;;;;;;5026183;28;45701;-67
2022/05/26 12:22:19;;;;;;;;;0.00;0.00;;;;;;;;5031879;28;45571;-68
2022/05/26 12:24:49;;;;;;;;;0.50;0.25;;;;;;;;5025596;28;45540;-69
2022/05/26 12:27:14;;;;;;;;;1.00;1.00;;;;;;;;5029796;28;46133;-66
2022/05/26 12:29:59;;;;;;;;;0.00;0.00;;;;;;;;5030880;28;45805;-65
2022/05/26 12:32:36;;;;;;;;;0.00;0.00;;;;;;;;5013701;28;45425;-69
2022/05/26 12:35:19;;;;;;;;;0.00;0.00;;;;;;;;5028486;28;45402;-68
2022/05/26 12:37:57;;;;;;;;;0.25;0.25;;;;;;;;5025680;28;45406;-67
2022/05/26 12:40:32;;;;;;;;;0.75;0.75;;;;;;;;5022064;28;45540;-68
2022/05/26 12:43:16;;;;;;;;;0.25;0.25;;;;;;;;5019963;28;45369;-68
2022/05/26 12:46:19;;;;;;;;;2.00;2.00;;;;;;;;5017153;28;45598;-68
2022/05/26 12:48:50;;;;;;;;;0.75;0.75;;;;;;;;4969721;28;45507;-66
2022/05/26 12:51:16;;;;;;;;;0.75;0.75;;;;;;;;4970171;28;45387;-66
2022/05/26 12:54:01;;;;;;;;;1.00;1.00;;;;;;;;4970993;28;45584;-67
2022/05/26 12:56:33;;;;;;;;;0.00;0.00;;;;;;;;4963529;28;47402;-66
2022/05/26 12:58:59;;;;;;;;;1.75;1.75;;;;;;;;4987689;28;46624;-66
2022/05/26 13:01:25;;;;;;;;;2.00;2.00;;;;;;;;4969452;28;45535;-68
2022/05/26 13:04:03;;;;;;;;;0.75;0.75;;;;;;;;4970625;28;45598;-68
2022/05/26 13:06:29;;;;;;;;;0.25;0.00;;;;;;;;4970461;28;47134;-67
2022/05/26 13:09:15;;;;;;;;;0.00;0.00;;;;;;;;4970500;28;45825;-66
2022/05/26 13:11:45;;;;;;;;;0.75;0.75;;;;;;;;4911083;28;45808;-68
2022/05/26 13:14:41;;;;;;;;;0.00;0.00;;;;;;;;4913217;28;45528;-67
2022/05/26 13:17:09;;;;;;;;;0.00;0.00;;;;;;;;4893929;28;46716;-68
2022/05/26 13:19:39;;;;;;;;;3.00;2.00;;;;;;;;4934126;28;45814;-67
2022/05/26 13:22:10;;;;;;;;;3.00;3.00;;;;;;;;4950737;28;45748;-68
2022/05/26 13:24:35;;;;;;;;;2.00;2.00;;;;;;;;4948540;28;45693;-66
2022/05/26 13:27:03;;;;;;;;;0.00;0.00;;;;;;;;4934683;28;47534;-67
2022/05/26 13:29:29;;;;;;;;;1.75;1.75;;;;;;;;4951263;28;45543;-67
2022/05/26 13:34:48;;;;;;;;;5.50;5.50;;;;;;;;4950397;28;45751;-66
2022/05/26 13:37:16;;;;;;;;;2.50;2.50;;;;;;;;4949788;28;48276;-69
2022/05/26 13:39:41;;;;;;;;;5.25;5.25;;;;;;;;4934017;28;45469;-68
2022/05/26 13:42:06;;;;;;;;;5.00;4.50;;;;;;;;4934444;28;45527;-68
2022/05/26 13:44:35;;;;;;;;;1.00;1.00;;;;;;;;4951930;28;46103;-68
2022/05/26 13:47:03;;;;;;;;;1.00;0.00;;;;;;;;4934696;28;47744;-68
2022/05/26 13:49:29;;;;;;;;;0.25;0.00;;;;;;;;5010568;28;45559;-67
2022/05/26 13:51:54;;;;;;;;;1.00;1.00;;;;;;;;5023588;28;45762;-68
2022/05/26 13:54:32;;;;;;;;;1.00;1.00;;;;;;;;5012839;28;45517;-69
2022/05/26 13:56:59;;;;;;;;;0.00;0.00;;;;;;;;5029346;28;45747;-68
2022/05/26 13:59:25;;;;;;;;;0.00;0.00;;;;;;;;5030084;28;45581;-69
2022/05/26 14:01:51;;;;;;;;;0.75;0.75;;;;;;;;5022255;28;45564;-67
2022/05/26 14:04:34;;;;;;;;;0.50;0.50;;;;;;;;5025076;28;45538;-67
2022/05/26 14:07:00;;;;;;;;;0.50;0.50;;;;;;;;5040490;28;47695;-67
2022/05/26 14:09:25;;;;;;;;;0.50;0.50;;;;;;;;5014002;28;45953;-65
2022/05/26 14:12:03;;;;;;;;;0.00;0.00;;;;;;;;5029163;28;45432;-66
2022/05/26 14:14:34;;;;;;;;;1.00;1.00;;;;;;;;5015845;28;45396;-67
2022/05/26 14:17:00;;;;;;;;;0.75;0.25;;;;;;;;5044575;28;47412;-66
2022/05/26 14:19:32;;;;;;;;;0.00;0.00;;;;;;;;5023367;28;45980;-66
2022/05/26 14:21:57;;;;;;;;;0.25;0.25;;;;;;;;5024055;28;45576;-67
2022/05/26 14:24:37;;;;;;;;;1.00;1.00;;;;;;;;5026201;28;45397;-69
2022/05/26 14:27:14;;;;;;;;;1.00;1.00;;;;;;;;5026016;28;45464;-66
2022/05/26 14:29:40;;;;;;;;;1.00;1.00;;;;;;;;5030356;28;45612;-65
2022/05/26 14:32:09;;;;;;;;;0.75;0.75;;;;;;;;5027000;28;45436;-65
2022/05/26 14:34:43;;;;;;;;;2.00;0.00;;;;;;;;5023690;28;45737;-67
2022/05/26 14:37:08;;;;;;;;;0.00;0.00;;;;;;;;5023745;28;47481;-68
2022/05/26 14:39:34;;;;;;;;;1.00;1.00;;;;;;;;5029120;28;45487;-68
2022/05/26 14:42:00;;;;;;;;;1.00;1.00;;;;;;;;5026828;28;45685;-67
2022/05/26 14:44:25;;;;;;;;;1.00;1.00;;;;;;;;5014710;28;45369;-67
2022/05/26 14:46:51;;;;;;;;;2.00;1.00;;;;;;;;5025540;28;46690;-68
2022/05/26 14:49:16;;;;;;;;;1.00;1.00;;;;;;;;5023519;28;45896;-67
2022/05/26 14:51:42;;;;;;;;;0.25;0.25;;;;;;;;5026223;28;45459;-67
2022/05/26 14:56:51;;;;;;;;;1.00;1.00;;;;;;;;5028462;28;45467;-67
2022/05/26 14:59:17;;;;;;;;;0.50;0.50;;;;;;;;5025751;28;45392;-67
2022/05/26 15:01:42;;;;;;;;;1.25;1.25;;;;;;;;5023480;28;45572;-68
2022/05/26 15:04:07;;;;;;;;;1.25;1.25;;;;;;;;5027967;28;45374;-68
2022/05/26 15:06:38;;;;;;;;;1.00;1.00;;;;;;;;5017410;28;46424;-67
2022/05/26 15:09:23;;;;;;;;;1.00;1.00;;;;;;;;5031224;28;45524;-67
2022/05/26 15:11:49;;;;;;;;;4.00;2.25;;;;;;;;5031831;28;45443;-67
2022/05/26 15:14:15;;;;;;;;;1.00;1.00;;;;;;;;5032001;28;45505;-66
2022/05/26 15:16:42;;;;;;;;;3.00;0.75;;;;;;;;5026605;28;46745;-67
2022/05/26 15:19:09;;;;;;;;;1.00;0.00;;;;;;;;5028527;28;45939;-67
2022/05/26 15:21:34;;;;;;;;;1.00;1.00;;;;;;;;5026578;28;45422;-67
2022/05/26 15:23:59;;;;;;;;;1.00;1.00;;;;;;;;5030979;28;45618;-66
2022/05/26 15:26:25;;;;;;;;;1.00;1.00;;;;;;;;5029587;28;45614;-65
2022/05/26 15:28:52;;;;;;;;;1.50;0.75;;;;;;;;5027323;28;45521;-66
2022/05/26 15:31:17;;;;;;;;;1.00;1.00;;;;;;;;5026794;28;45446;-68
2022/05/26 15:33:43;;;;;;;;;1.50;1.00;;;;;;;;5026212;28;45497;-67